Time;durP1;ratioP1;P1;durP2;ratioP2;P2;SDS_P1;SDS_P2;PMS_P1;PMS_P2;Temp;Humidity;BMP_temperature;BMP_pressure;BME280_temperature;BME280_humidity;BME280_pressure;Samples;Min_cycle;Max_cycle;Signal;HPM_P1;HPM_P2
2023/12/21 00:00:53;;;;;;;;;1.33;1.33;;;;;;;;5036984;28;28898;-68
2023/12/21 00:03:18;;;;;;;;;1.67;1.67;;;;;;;;5027222;28;28402;-68
2023/12/21 00:05:44;;;;;;;;;1.00;0.67;;;;;;;;5028068;28;29422;-68
2023/12/21 00:08:09;;;;;;;;;2.00;2.00;;;;;;;;5058410;22;28797;-82
2023/12/21 00:10:35;;;;;;;;;10.67;3.00;;;;;;;;5027398;28;29184;-81
2023/12/21 00:13:00;;;;;;;;;3.00;3.00;;;;;;;;5054679;28;28505;-80
2023/12/21 00:15:26;;;;;;;;;4.00;1.67;;;;;;;;5057741;28;28936;-81
2023/12/21 00:17:51;;;;;;;;;5.33;2.00;;;;;;;;5069322;28;28645;-81
2023/12/21 00:20:16;;;;;;;;;2.33;0.67;;;;;;;;5053930;28;31370;-82
2023/12/21 00:22:41;;;;;;;;;6.67;3.33;;;;;;;;5022481;28;29545;-82
2023/12/21 00:25:07;;;;;;;;;5.33;3.33;;;;;;;;5039397;28;28443;-83
2023/12/21 00:27:32;;;;;;;;;2.00;1.67;;;;;;;;5053529;28;28634;-82
2023/12/21 00:29:57;;;;;;;;;1.33;1.33;;;;;;;;5060790;28;28623;-81
2023/12/21 00:32:22;;;;;;;;;6.33;3.00;;;;;;;;5038859;28;29725;-81
2023/12/21 00:34:49;;;;;;;;;4.67;3.67;;;;;;;;5045515;28;28512;-81
2023/12/21 00:37:15;;;;;;;;;3.00;1.67;;;;;;;;5039793;28;28431;-82
2023/12/21 00:39:40;;;;;;;;;2.67;0.67;;;;;;;;5049501;28;28485;-81
2023/12/21 00:42:05;;;;;;;;;1.67;1.67;;;;;;;;5062902;28;28462;-83
2023/12/21 00:44:31;;;;;;;;;3.67;2.67;;;;;;;;5051897;28;28372;-83
2023/12/21 00:46:56;;;;;;;;;4.33;1.33;;;;;;;;5061330;28;28187;-81
2023/12/21 00:49:21;;;;;;;;;2.00;1.00;;;;;;;;5047003;28;29196;-81
2023/12/21 00:51:47;;;;;;;;;1.00;1.00;;;;;;;;5062264;28;28489;-80
2023/12/21 00:54:12;;;;;;;;;2.00;2.00;;;;;;;;5036987;28;29372;-82
2023/12/21 00:56:38;;;;;;;;;3.00;2.67;;;;;;;;5050848;28;27870;-80
2023/12/21 00:59:04;;;;;;;;;6.33;2.33;;;;;;;;5032283;28;29653;-81
2023/12/21 01:01:29;;;;;;;;;0.67;0.67;;;;;;;;5058390;28;28914;-80
2023/12/21 01:03:54;;;;;;;;;3.00;3.00;;;;;;;;5042217;28;28866;-81
2023/12/21 01:06:19;;;;;;;;;3.00;1.00;;;;;;;;5050590;28;28790;-80
2023/12/21 01:08:45;;;;;;;;;4.00;2.00;;;;;;;;5057732;28;28031;-81
2023/12/21 01:11:10;;;;;;;;;1.67;1.67;;;;;;;;5061938;28;28579;-82
2023/12/21 01:13:36;;;;;;;;;5.00;0.67;;;;;;;;5053783;28;28458;-79
2023/12/21 01:16:01;;;;;;;;;3.00;3.00;;;;;;;;5036736;28;28834;-81
2023/12/21 01:18:26;;;;;;;;;3.00;1.67;;;;;;;;5054959;28;29076;-80
2023/12/21 01:20:52;;;;;;;;;4.00;2.33;;;;;;;;5065622;28;28598;-82
2023/12/21 01:23:17;;;;;;;;;2.67;1.33;;;;;;;;5022889;28;29384;-80
2023/12/21 01:25:42;;;;;;;;;3.33;2.33;;;;;;;;5051646;28;28477;-79
2023/12/21 01:28:07;;;;;;;;;2.33;2.33;;;;;;;;5048120;28;28986;-80
2023/12/21 01:30:33;;;;;;;;;2.67;2.67;;;;;;;;5051996;28;29563;-80
2023/12/21 01:32:58;;;;;;;;;2.00;1.00;;;;;;;;5027974;28;28561;-81
2023/12/21 01:35:23;;;;;;;;;3.00;0.67;;;;;;;;5048610;28;28480;-81
2023/12/21 01:37:49;;;;;;;;;7.33;4.00;;;;;;;;5050525;28;28618;-81
2023/12/21 01:40:15;;;;;;;;;3.33;2.00;;;;;;;;5049854;28;28894;-82
2023/12/21 01:42:40;;;;;;;;;1.33;1.33;;;;;;;;5054740;28;28846;-80
2023/12/21 01:45:05;;;;;;;;;1.33;1.00;;;;;;;;5054383;28;28562;-80
2023/12/21 01:47:31;;;;;;;;;3.00;1.33;;;;;;;;5051129;28;28961;-80
2023/12/21 01:49:56;;;;;;;;;2.33;0.67;;;;;;;;5055692;28;28440;-82
2023/12/21 01:52:21;;;;;;;;;3.00;0.67;;;;;;;;5063331;28;28657;-79
2023/12/21 01:54:47;;;;;;;;;1.33;1.33;;;;;;;;5062847;28;28397;-81
2023/12/21 01:57:12;;;;;;;;;3.00;2.00;;;;;;;;5066573;28;27933;-80
2023/12/21 01:59:38;;;;;;;;;1.67;1.67;;;;;;;;5062061;28;28487;-80
2023/12/21 02:02:03;;;;;;;;;1.67;0.00;;;;;;;;5051633;28;28430;-82
2023/12/21 02:04:29;;;;;;;;;0.67;0.00;;;;;;;;5052461;28;28494;-80
2023/12/21 02:06:54;;;;;;;;;2.67;1.67;;;;;;;;5022897;28;28984;-82
2023/12/21 02:09:19;;;;;;;;;3.00;1.00;;;;;;;;5046858;28;29945;-81
2023/12/21 02:11:46;;;;;;;;;5.00;2.00;;;;;;;;5044247;28;28776;-82
2023/12/21 02:14:11;;;;;;;;;2.67;1.67;;;;;;;;5034327;28;28534;-81
2023/12/21 02:16:39;;;;;;;;;4.00;1.33;;;;;;;;5050503;28;29027;-81
2023/12/21 02:19:04;;;;;;;;;2.33;1.00;;;;;;;;5036413;28;29763;-79
2023/12/21 02:21:30;;;;;;;;;1.67;0.67;;;;;;;;5057107;28;28561;-80
2023/12/21 02:23:57;;;;;;;;;0.67;0.67;;;;;;;;5034436;28;28500;-80
2023/12/21 02:26:22;;;;;;;;;1.00;1.00;;;;;;;;5066430;28;28605;-80
2023/12/21 02:28:47;;;;;;;;;1.67;0.67;;;;;;;;5036046;28;30132;-82
2023/12/21 02:31:13;;;;;;;;;2.00;0.67;;;;;;;;5036526;28;28731;-81
2023/12/21 02:33:38;;;;;;;;;0.33;0.33;;;;;;;;5051133;28;28451;-81
2023/12/21 02:36:03;;;;;;;;;3.00;0.00;;;;;;;;5040717;28;28430;-81
2023/12/21 02:38:29;;;;;;;;;0.00;0.00;;;;;;;;5043919;28;29962;-79
2023/12/21 02:40:54;;;;;;;;;0.00;0.00;;;;;;;;5036649;28;28862;-82
2023/12/21 02:43:19;;;;;;;;;0.00;0.00;;;;;;;;5047477;28;28423;-81
2023/12/21 02:45:44;;;;;;;;;0.33;0.33;;;;;;;;5035374;28;29210;-81
2023/12/21 02:48:10;;;;;;;;;1.67;1.00;;;;;;;;5039649;28;29750;-80
2023/12/21 02:50:35;;;;;;;;;3.33;1.67;;;;;;;;5057994;28;28578;-81
2023/12/21 02:53:00;;;;;;;;;1.00;1.00;;;;;;;;5060825;28;28595;-80
2023/12/21 02:55:26;;;;;;;;;1.67;0.00;;;;;;;;5059231;28;29474;-81
2023/12/21 02:57:51;;;;;;;;;3.67;1.00;;;;;;;;5062061;28;29048;-81
2023/12/21 03:00:17;;;;;;;;;0.00;0.00;;;;;;;;5061692;28;28514;-80
2023/12/21 03:02:42;;;;;;;;;0.00;0.00;;;;;;;;5063707;28;28980;-81
2023/12/21 03:05:07;;;;;;;;;1.00;1.00;;;;;;;;5048166;28;28531;-79
2023/12/21 03:07:33;;;;;;;;;0.33;0.00;;;;;;;;5052705;28;28960;-80
2023/12/21 03:09:58;;;;;;;;;2.33;0.67;;;;;;;;5031947;28;28012;-82
2023/12/21 03:12:23;;;;;;;;;3.00;0.67;;;;;;;;5046033;28;28479;-81
2023/12/21 03:14:48;;;;;;;;;1.00;0.33;;;;;;;;5050534;28;29620;-81
2023/12/21 03:17:14;;;;;;;;;0.33;0.00;;;;;;;;5061357;28;28611;-82
2023/12/21 03:19:39;;;;;;;;;3.00;0.33;;;;;;;;5067363;28;28467;-84
2023/12/21 03:22:04;;;;;;;;;2.67;0.00;;;;;;;;5064181;28;28813;-80
2023/12/21 03:24:29;;;;;;;;;1.67;0.67;;;;;;;;5063781;28;28948;-82
2023/12/21 03:26:55;;;;;;;;;2.67;0.00;;;;;;;;5052563;28;28821;-81
2023/12/21 03:29:20;;;;;;;;;0.00;0.00;;;;;;;;5058192;28;28837;-82
2023/12/21 03:31:45;;;;;;;;;3.00;0.00;;;;;;;;5048053;28;28452;-83
2023/12/21 03:34:10;;;;;;;;;1.00;0.67;;;;;;;;5034036;28;30115;-80
2023/12/21 03:36:36;;;;;;;;;0.00;0.00;;;;;;;;5028343;28;30019;-82
2023/12/21 03:39:01;;;;;;;;;0.00;0.00;;;;;;;;5063121;28;28786;-80
2023/12/21 03:41:26;;;;;;;;;0.00;0.00;;;;;;;;5052688;28;28462;-81
2023/12/21 03:43:51;;;;;;;;;0.00;0.00;;;;;;;;5064918;28;28595;-82
2023/12/21 03:46:17;;;;;;;;;0.67;0.67;;;;;;;;5050667;28;30153;-82
2023/12/21 03:48:42;;;;;;;;;0.00;0.00;;;;;;;;5057750;28;28443;-82
2023/12/21 03:51:07;;;;;;;;;0.33;0.00;;;;;;;;5043608;28;28714;-82
2023/12/21 03:53:33;;;;;;;;;0.00;0.00;;;;;;;;5037711;28;29332;-81
2023/12/21 03:55:58;;;;;;;;;0.00;0.00;;;;;;;;5053198;28;29254;-81
2023/12/21 03:58:23;;;;;;;;;1.00;0.00;;;;;;;;5045780;28;28690;-81
2023/12/21 04:00:49;;;;;;;;;0.67;0.00;;;;;;;;5047362;28;28378;-81
2023/12/21 04:03:14;;;;;;;;;0.00;0.00;;;;;;;;5051875;28;28690;-82
2023/12/21 04:05:39;;;;;;;;;0.00;0.00;;;;;;;;5053502;28;28510;-82
2023/12/21 04:08:05;;;;;;;;;0.00;0.00;;;;;;;;5052642;28;28577;-82
2023/12/21 04:10:31;;;;;;;;;0.00;0.00;;;;;;;;5050756;28;28711;-84
2023/12/21 04:12:56;;;;;;;;;0.33;0.33;;;;;;;;5050856;28;28916;-83
2023/12/21 04:15:21;;;;;;;;;0.00;0.00;;;;;;;;5051815;28;29841;-82
2023/12/21 04:17:47;;;;;;;;;0.00;0.00;;;;;;;;5061494;28;28520;-82
2023/12/21 04:20:12;;;;;;;;;0.00;0.00;;;;;;;;5039801;28;28728;-82
2023/12/21 04:22:37;;;;;;;;;1.33;0.00;;;;;;;;5060946;28;28896;-82
2023/12/21 04:25:03;;;;;;;;;1.00;0.00;;;;;;;;5069642;28;28768;-82
2023/12/21 04:27:28;;;;;;;;;0.67;0.00;;;;;;;;5060067;28;28936;-83
2023/12/21 04:29:54;;;;;;;;;0.00;0.00;;;;;;;;5048235;28;28347;-75
2023/12/21 04:32:19;;;;;;;;;0.00;0.00;;;;;;;;5044452;28;29066;-76
2023/12/21 04:34:44;;;;;;;;;0.00;0.00;;;;;;;;5044416;28;29027;-76
2023/12/21 04:37:10;;;;;;;;;0.67;0.00;;;;;;;;5048892;28;28835;-76
2023/12/21 04:39:35;;;;;;;;;0.00;0.00;;;;;;;;5047880;28;28483;-76
2023/12/21 04:42:00;;;;;;;;;0.33;0.00;;;;;;;;5046599;28;28693;-76
2023/12/21 04:44:25;;;;;;;;;0.00;0.00;;;;;;;;5042344;28;28687;-76
2023/12/21 04:46:51;;;;;;;;;0.67;0.00;;;;;;;;5046698;28;29640;-76
2023/12/21 04:49:17;;;;;;;;;0.67;0.00;;;;;;;;5047012;28;28429;-75
2023/12/21 04:51:43;;;;;;;;;0.00;0.00;;;;;;;;5045591;28;28608;-76
2023/12/21 04:54:11;;;;;;;;;0.00;0.00;;;;;;;;5050137;28;29036;-76
2023/12/21 04:56:40;;;;;;;;;0.00;0.00;;;;;;;;5030246;28;29253;-77
2023/12/21 04:59:06;;;;;;;;;3.33;0.00;;;;;;;;5054901;28;28481;-77
2023/12/21 05:01:31;;;;;;;;;0.00;0.00;;;;;;;;5045819;28;28363;-75
2023/12/21 05:03:56;;;;;;;;;0.00;0.00;;;;;;;;5055078;28;28492;-76
2023/12/21 05:06:21;;;;;;;;;0.00;0.00;;;;;;;;5050750;28;28435;-76
2023/12/21 05:08:46;;;;;;;;;0.00;0.00;;;;;;;;5050197;28;28515;-76
2023/12/21 05:11:12;;;;;;;;;0.00;0.00;;;;;;;;5035906;28;29180;-76
2023/12/21 05:13:37;;;;;;;;;1.00;0.00;;;;;;;;5041855;28;28532;-74
2023/12/21 05:16:03;;;;;;;;;0.00;0.00;;;;;;;;5053265;28;28513;-75
2023/12/21 05:18:28;;;;;;;;;0.00;0.00;;;;;;;;5052831;28;28568;-77
2023/12/21 05:20:54;;;;;;;;;0.00;0.00;;;;;;;;5038056;28;28567;-78
2023/12/21 05:23:19;;;;;;;;;0.00;0.00;;;;;;;;5046209;28;30125;-78
2023/12/21 05:25:44;;;;;;;;;0.00;0.00;;;;;;;;5048612;28;29681;-75
2023/12/21 05:28:11;;;;;;;;;0.00;0.00;;;;;;;;5032683;28;28918;-76
2023/12/21 05:30:40;;;;;;;;;0.33;0.00;;;;;;;;5033105;28;28501;-78
2023/12/21 05:33:05;;;;;;;;;0.00;0.00;;;;;;;;5054467;28;28951;-78
2023/12/21 05:35:34;;;;;;;;;13.67;10.67;;;;;;;;5051191;28;28745;-84
2023/12/21 05:37:59;;;;;;;;;0.00;0.00;;;;;;;;5049543;28;28819;-79
2023/12/21 05:40:24;;;;;;;;;0.00;0.00;;;;;;;;5036507;28;30011;-77
2023/12/21 05:42:52;;;;;;;;;0.00;0.00;;;;;;;;5054482;28;28819;-80
2023/12/21 05:45:17;;;;;;;;;0.67;0.00;;;;;;;;5046478;28;28815;-78
2023/12/21 05:47:43;;;;;;;;;0.00;0.00;;;;;;;;5031082;28;28490;-81
2023/12/21 05:50:08;;;;;;;;;0.00;0.00;;;;;;;;5028769;28;30727;-79
2023/12/21 05:52:36;;;;;;;;;0.00;0.00;;;;;;;;5028383;28;29712;-79
2023/12/21 05:55:05;;;;;;;;;0.00;0.00;;;;;;;;5025339;28;28868;-81
2023/12/21 05:57:30;;;;;;;;;0.00;0.00;;;;;;;;5045233;28;28751;-78
2023/12/21 05:59:56;;;;;;;;;0.00;0.00;;;;;;;;5036098;28;29187;-80
2023/12/21 06:02:21;;;;;;;;;0.00;0.00;;;;;;;;5027874;28;29933;-84
2023/12/21 06:04:46;;;;;;;;;0.33;0.00;;;;;;;;5036294;28;28523;-82
2023/12/21 06:07:43;;;;;;;;;0.33;0.00;;;;;;;;5059938;28;28745;-87
2023/12/21 06:13:44;;;;;;;;;1.00;0.00;;;;;;;;4996305;28;28663;-83
2023/12/21 06:16:12;;;;;;;;;0.00;0.00;;;;;;;;5034863;28;28530;-80
2023/12/21 06:21:49;;;;;;;;;0.33;0.00;;;;;;;;4969969;28;27909;-78
2023/12/21 06:27:39;;;;;;;;;0.00;0.00;;;;;;;;4982133;28;28147;-82
2023/12/21 06:30:15;;;;;;;;;0.00;0.00;;;;;;;;4990138;28;27899;-83
2023/12/21 06:32:40;;;;;;;;;0.00;0.00;;;;;;;;4969195;28;29879;-83
2023/12/21 06:41:41;;;;;;;;;0.00;0.00;;;;;;;;4978854;28;28852;-84
2023/12/21 06:48:07;;;;;;;;;0.00;0.00;;;;;;;;4911726;28;28826;-85
2023/12/21 06:50:32;;;;;;;;;0.00;0.00;;;;;;;;4925657;28;28720;-84
2023/12/21 06:52:59;;;;;;;;;0.67;0.00;;;;;;;;5042295;28;28568;-84
2023/12/21 06:55:25;;;;;;;;;0.00;0.00;;;;;;;;5050095;28;28465;-83
2023/12/21 06:57:50;;;;;;;;;0.67;0.00;;;;;;;;5072167;28;30360;-85
2023/12/21 07:00:24;;;;;;;;;0.00;0.00;;;;;;;;5044340;28;28566;-81
2023/12/21 07:02:50;;;;;;;;;0.00;0.00;;;;;;;;5052957;28;28495;-81
2023/12/21 07:06:11;;;;;;;;;0.00;0.00;;;;;;;;5053531;28;29213;-83
2023/12/21 07:08:37;;;;;;;;;0.00;0.00;;;;;;;;4998167;28;28853;-84
2023/12/21 07:26:53;;;;;;;;;0.00;0.00;;;;;;;;4911545;29;28590;-88
2023/12/21 07:45:21;;;;;;;;;0.00;0.00;;;;;;;;4957510;28;29399;-83
2023/12/21 07:47:46;;;;;;;;;0.00;0.00;;;;;;;;4973260;28;28793;-83
2023/12/21 07:50:11;;;;;;;;;0.00;0.00;;;;;;;;5005465;28;28431;-84
2023/12/21 07:52:37;;;;;;;;;0.00;0.00;;;;;;;;5038494;28;28464;-85
2023/12/21 07:55:04;;;;;;;;;0.67;0.00;;;;;;;;5044100;28;28675;-84
2023/12/21 07:57:31;;;;;;;;;0.00;0.00;;;;;;;;5037264;28;28732;-85
2023/12/21 07:59:56;;;;;;;;;0.00;0.00;;;;;;;;5058563;28;28581;-85
2023/12/21 08:02:21;;;;;;;;;0.00;0.00;;;;;;;;5028825;28;28495;-85
2023/12/21 08:04:47;;;;;;;;;0.00;0.00;;;;;;;;5050174;28;28502;-85
2023/12/21 08:07:12;;;;;;;;;0.00;0.00;;;;;;;;5040449;28;28509;-85
2023/12/21 08:09:38;;;;;;;;;0.00;0.00;;;;;;;;5048024;28;28415;-84
2023/12/21 08:12:03;;;;;;;;;0.00;0.00;;;;;;;;5045088;28;29194;-87
2023/12/21 08:14:31;;;;;;;;;0.00;0.00;;;;;;;;5035414;28;29803;-85
2023/12/21 08:16:59;;;;;;;;;0.00;0.00;;;;;;;;5042230;28;28906;-85
2023/12/21 08:19:24;;;;;;;;;0.00;0.00;;;;;;;;5042542;28;28562;-84
2023/12/21 08:21:50;;;;;;;;;0.00;0.00;;;;;;;;5028320;28;29473;-84
2023/12/21 08:24:15;;;;;;;;;0.00;0.00;;;;;;;;5049969;28;28716;-86
2023/12/21 08:26:40;;;;;;;;;0.00;0.00;;;;;;;;5032904;28;28607;-84
2023/12/21 08:29:06;;;;;;;;;0.00;0.00;;;;;;;;5058177;28;27916;-83
2023/12/21 08:31:32;;;;;;;;;4.67;2.33;;;;;;;;5065662;28;27899;-85
2023/12/21 08:33:57;;;;;;;;;9.33;6.33;;;;;;;;5056106;28;28513;-89
2023/12/21 08:36:23;;;;;;;;;0.00;0.00;;;;;;;;5042249;28;28525;-89
2023/12/21 08:38:49;;;;;;;;;0.00;0.00;;;;;;;;5037462;28;28486;-87
2023/12/21 08:41:14;;;;;;;;;0.67;0.67;;;;;;;;5058879;28;28433;-88
2023/12/21 08:43:40;;;;;;;;;0.00;0.00;;;;;;;;5061574;28;28392;-87
2023/12/21 08:46:06;;;;;;;;;0.00;0.00;;;;;;;;5054717;28;28878;-87
2023/12/21 08:48:32;;;;;;;;;0.00;0.00;;;;;;;;5069255;28;28248;-86
2023/12/21 08:50:58;;;;;;;;;0.00;0.00;;;;;;;;5071841;28;28426;-88
2023/12/21 08:53:29;;;;;;;;;0.00;0.00;;;;;;;;5058980;28;28590;-88
2023/12/21 08:55:54;;;;;;;;;1.00;0.00;;;;;;;;5038183;28;28569;-88
2023/12/21 08:58:19;;;;;;;;;0.00;0.00;;;;;;;;5045348;28;28152;-79
2023/12/21 09:00:46;;;;;;;;;0.00;0.00;;;;;;;;5040991;28;28809;-89
2023/12/21 09:03:11;;;;;;;;;0.00;0.00;;;;;;;;5038927;28;29170;-86
2023/12/21 09:05:37;;;;;;;;;0.00;0.00;;;;;;;;5029637;28;28889;-85
2023/12/21 09:08:03;;;;;;;;;0.00;0.00;;;;;;;;4952650;28;2391915;-86
2023/12/21 09:10:29;;;;;;;;;0.00;0.00;;;;;;;;5060883;28;28509;-81
2023/12/21 09:12:54;;;;;;;;;0.00;0.00;;;;;;;;5049120;28;28517;-82
2023/12/21 09:15:20;;;;;;;;;0.00;0.00;;;;;;;;5052955;28;28512;-80
2023/12/21 09:17:46;;;;;;;;;0.00;0.00;;;;;;;;5038123;28;28652;-85
2023/12/21 09:20:13;;;;;;;;;0.00;0.00;;;;;;;;5070683;28;28696;-83
2023/12/21 09:22:38;;;;;;;;;0.00;0.00;;;;;;;;5056715;28;30250;-85
2023/12/21 09:25:20;;;;;;;;;0.00;0.00;;;;;;;;5055569;28;28355;-87
2023/12/21 09:27:45;;;;;;;;;0.33;0.00;;;;;;;;5062026;28;27900;-80
2023/12/21 09:30:11;;;;;;;;;0.00;0.00;;;;;;;;5067649;28;28513;-77
2023/12/21 09:32:38;;;;;;;;;0.00;0.00;;;;;;;;5070780;28;29373;-81
2023/12/21 09:35:04;;;;;;;;;1.00;1.00;;;;;;;;5056027;28;28574;-86
2023/12/21 09:37:29;;;;;;;;;0.00;0.00;;;;;;;;5055513;28;27858;-85
2023/12/21 09:39:57;;;;;;;;;0.00;0.00;;;;;;;;5066615;28;29010;-85
2023/12/21 09:42:23;;;;;;;;;0.00;0.00;;;;;;;;5039672;28;28940;-85
2023/12/21 09:44:49;;;;;;;;;0.00;0.00;;;;;;;;5068334;28;27881;-85
2023/12/21 09:47:19;;;;;;;;;0.00;0.00;;;;;;;;5075387;28;28314;-85
2023/12/21 09:49:50;;;;;;;;;0.00;0.00;;;;;;;;5053432;28;29329;-83
2023/12/21 09:52:17;;;;;;;;;1.00;0.00;;;;;;;;5069476;28;28449;-84
2023/12/21 09:54:44;;;;;;;;;0.00;0.00;;;;;;;;5060394;28;27840;-85
2023/12/21 09:57:10;;;;;;;;;1.00;0.00;;;;;;;;5074603;28;28691;-85
2023/12/21 09:59:36;;;;;;;;;0.00;0.00;;;;;;;;5072563;28;29521;-85
2023/12/21 10:02:11;;;;;;;;;0.00;0.00;;;;;;;;5052609;28;29984;-80
2023/12/21 10:04:55;;;;;;;;;0.75;0.00;;;;;;;;5076557;28;28389;-81
2023/12/21 10:07:26;;;;;;;;;0.00;0.00;;;;;;;;5067897;28;27800;-86
2023/12/21 10:09:52;;;;;;;;;0.00;0.00;;;;;;;;5058939;28;28518;-80
2023/12/21 10:12:17;;;;;;;;;0.00;0.00;;;;;;;;5062052;28;28463;-80
2023/12/21 10:14:46;;;;;;;;;1.00;0.00;;;;;;;;5029385;28;28511;-79
2023/12/21 10:17:14;;;;;;;;;0.00;0.00;;;;;;;;5041852;28;28411;-79
2023/12/21 10:19:44;;;;;;;;;0.67;0.00;;;;;;;;5049660;28;28766;-81
2023/12/21 10:22:11;;;;;;;;;0.00;0.00;;;;;;;;5043879;28;30082;-82
2023/12/21 10:24:36;;;;;;;;;0.67;0.00;;;;;;;;5044807;28;28628;-81
2023/12/21 10:27:03;;;;;;;;;0.00;0.00;;;;;;;;5051229;28;28499;-80
2023/12/21 10:29:29;;;;;;;;;0.00;0.00;;;;;;;;5037280;28;28574;-80
2023/12/21 10:31:56;;;;;;;;;1.00;0.33;;;;;;;;5045461;28;29547;-82
2023/12/21 10:34:22;;;;;;;;;0.00;0.00;;;;;;;;5045322;28;28454;-81
2023/12/21 10:36:47;;;;;;;;;1.33;0.67;;;;;;;;5041180;28;28397;-81
2023/12/21 10:39:14;;;;;;;;;0.00;0.00;;;;;;;;5050860;28;28700;-87
2023/12/21 10:41:43;;;;;;;;;0.00;0.00;;;;;;;;5056475;28;29831;-84
2023/12/21 10:44:12;;;;;;;;;2.00;0.00;;;;;;;;5061409;28;27956;-85
2023/12/21 10:46:38;;;;;;;;;4.00;1.00;;;;;;;;5045562;28;28722;-81
2023/12/21 10:49:09;;;;;;;;;2.67;2.00;;;;;;;;5063971;28;27858;-86
2023/12/21 10:51:39;;;;;;;;;2.00;0.00;;;;;;;;5046273;28;28974;-86
2023/12/21 10:54:06;;;;;;;;;0.67;0.67;;;;;;;;5060717;28;28676;-82
2023/12/21 10:56:32;;;;;;;;;1.67;0.33;;;;;;;;5033054;28;28412;-82
2023/12/21 10:59:01;;;;;;;;;0.00;0.00;;;;;;;;5037669;28;30719;-81
2023/12/21 11:01:27;;;;;;;;;1.00;1.00;;;;;;;;5057959;28;29245;-80
2023/12/21 11:03:53;;;;;;;;;1.00;1.00;;;;;;;;5064530;28;28845;-81
2023/12/21 11:06:19;;;;;;;;;2.00;1.00;;;;;;;;5053116;28;28370;-82
2023/12/21 11:08:45;;;;;;;;;1.33;1.00;;;;;;;;5038277;28;29404;-88
2023/12/21 11:11:16;;;;;;;;;1.33;0.00;;;;;;;;5031437;28;29714;-79
2023/12/21 11:13:45;;;;;;;;;1.67;0.33;;;;;;;;5051490;28;28629;-82
2023/12/21 11:16:12;;;;;;;;;1.00;1.00;;;;;;;;5042965;28;28050;-80
2023/12/21 11:18:39;;;;;;;;;2.00;1.00;;;;;;;;5044062;28;28538;-80
2023/12/21 11:21:36;;;;;;;;;0.33;0.00;;;;;;;;5034317;28;28641;-82
2023/12/21 11:24:03;;;;;;;;;0.75;0.75;;;;;;;;5048239;28;28545;-85
2023/12/21 11:27:07;;;;;;;;;0.33;0.33;;;;;;;;5041038;28;28639;-85
2023/12/21 11:29:46;;;;;;;;;;;;;;;;;;;;;
2023/12/21 11:32:38;;;;;;;;;1.67;1.67;;;;;;;;5045401;28;57371;-86
2023/12/21 11:35:48;;;;;;;;;3.33;1.00;;;;;;;;5033238;28;28263;-88
2023/12/21 11:41:08;;;;;;;;;2.00;2.00;;;;;;;;5010643;28;27952;-89
2023/12/21 11:43:34;;;;;;;;;2.00;2.00;;;;;;;;5051878;28;28205;-86
2023/12/21 11:46:00;;;;;;;;;3.67;1.67;;;;;;;;5057763;28;27880;-85
2023/12/21 11:48:25;;;;;;;;;2.00;0.33;;;;;;;;5031458;28;28705;-82
2023/12/21 11:50:59;;;;;;;;;1.67;1.00;;;;;;;;5047524;28;30298;-84
2023/12/21 11:53:25;;;;;;;;;3.00;2.00;;;;;;;;5055712;28;28639;-87
2023/12/21 11:56:02;;;;;;;;;3.50;0.75;;;;;;;;5061033;28;28477;-82
2023/12/21 11:58:27;;;;;;;;;0.33;0.33;;;;;;;;5038958;28;28701;-88
2023/12/21 12:00:53;;;;;;;;;1.00;0.00;;;;;;;;5053760;28;28859;-82
2023/12/21 12:03:20;;;;;;;;;1.33;1.00;;;;;;;;5045927;28;29953;-86
2023/12/21 12:05:45;;;;;;;;;3.00;1.00;;;;;;;;5057012;28;28645;-88
2023/12/21 12:08:11;;;;;;;;;1.00;0.00;;;;;;;;5041553;28;28419;-86
2023/12/21 12:10:36;;;;;;;;;2.00;2.00;;;;;;;;5055632;28;29222;-87
2023/12/21 12:13:02;;;;;;;;;1.00;1.00;;;;;;;;5041160;28;29472;-84
2023/12/21 12:15:29;;;;;;;;;2.00;1.00;;;;;;;;5034779;28;28707;-88
2023/12/21 12:17:54;;;;;;;;;1.00;1.00;;;;;;;;5059794;28;28544;-90
2023/12/21 12:20:20;;;;;;;;;2.00;1.00;;;;;;;;5039624;28;28581;-83
2023/12/21 12:23:03;;;;;;;;;2.33;2.33;;;;;;;;5059386;28;28512;-83
2023/12/21 12:26:10;;;;;;;;;;;;;;;;;;;;;
2023/12/21 12:31:38;;;;;;;;;4.67;2.00;;;;;;;;5021279;28;28985;-81
2023/12/21 12:34:37;;;;;;;;;2.67;1.00;;;;;;;;5061845;28;29228;-84
2023/12/21 12:37:07;;;;;;;;;11.00;7.67;;;;;;;;5051719;28;29047;-82
2023/12/21 12:40:07;;;;;;;;;;;;;;;;;;;;;
2023/12/21 12:42:33;;;;;;;;;2.33;2.33;;;;;;;;5023762;28;57516;-84
2023/12/21 12:45:32;;;;;;;;;;;;;;;;;;;;;
2023/12/21 12:48:24;;;;;;;;;4.33;1.67;;;;;;;;5052220;28;58214;-85
2023/12/21 12:51:11;;;;;;;;;3.67;2.67;;;;;;;;5031405;28;28957;-83
2023/12/21 12:53:51;;;;;;;;;2.00;2.00;;;;;;;;5044179;28;28468;-85
2023/12/21 12:56:23;;;;;;;;;6.67;5.33;;;;;;;;5054206;28;28382;-80
2023/12/21 12:59:10;;;;;;;;;5.67;2.67;;;;;;;;5056401;28;28598;-86
2023/12/21 13:02:05;;;;;;;;;3.00;2.00;;;;;;;;5058012;28;28856;-83
2023/12/21 13:07:39;;;;;;;;;3.00;2.00;;;;;;;;5054165;28;28826;-84
2023/12/21 13:14:06;;;;;;;;;;;;;;;;;;;;;
2023/12/21 13:17:06;;;;;;;;;4.00;4.00;;;;;;;;4818347;29;57574;-83
2023/12/21 13:22:53;;;;;;;;;;;;;;;;;;;;;
2023/12/21 13:25:38;;;;;;;;;;;;;;;;;;;;;
2023/12/21 13:28:33;;;;;;;;;6.00;1.67;;;;;;;;4794788;29;56874;-84
2023/12/21 13:31:25;;;;;;;;;10.67;6.33;;;;;;;;4837100;29;28574;-84
2023/12/21 13:34:12;;;;;;;;;7.00;3.67;;;;;;;;4866144;29;28593;-83
2023/12/21 13:46:50;;;;;;;;;;;;;;;;;;;;;
2023/12/21 13:55:35;;;;;;;;;;;;;;;;;;;;;
2023/12/21 13:58:12;;;;;;;;;1.33;1.00;;;;;;;;4857848;29;56548;-80
2023/12/21 14:01:22;;;;;;;;;;;;;;;;;;;;;
2023/12/21 14:04:03;;;;;;;;;1.00;1.00;;;;;;;;4873880;29;58190;-85
2023/12/21 14:19:43;;;;;;;;;;;;;;;;;;;;;
2023/12/21 14:22:45;;;;;;;;;2.00;2.00;;;;;;;;4988125;28;28574;-84
2023/12/21 14:25:22;;;;;;;;;0.67;0.67;;;;;;;;4982302;28;28534;-84
2023/12/21 14:27:59;;;;;;;;;1.00;1.00;;;;;;;;4974760;28;28533;-82
2023/12/21 14:30:37;;;;;;;;;2.00;2.00;;;;;;;;4973547;28;29397;-84
2023/12/21 14:36:28;;;;;;;;;4.33;2.00;;;;;;;;4937343;28;28654;-82
2023/12/21 14:39:12;;;;;;;;;2.00;1.33;;;;;;;;4929872;28;29410;-85
2023/12/21 14:52:02;;;;;;;;;1.67;1.00;;;;;;;;4940769;28;28580;-82
2023/12/21 14:54:28;;;;;;;;;4.67;2.00;;;;;;;;4977555;28;28602;-84
2023/12/21 15:00:49;;;;;;;;;0.67;0.67;;;;;;;;4858796;29;28457;-84
2023/12/21 15:03:58;;;;;;;;;3.67;2.67;;;;;;;;4871623;29;28592;-85
2023/12/21 15:06:44;;;;;;;;;;;;;;;;;;;;;
2023/12/21 15:09:30;;;;;;;;;1.67;1.67;;;;;;;;4988227;28;57338;-84
2023/12/21 15:11:56;;;;;;;;;4.00;3.00;;;;;;;;5037705;28;28539;-84
2023/12/21 15:14:25;;;;;;;;;3.00;1.67;;;;;;;;5040370;28;29799;-83
2023/12/21 15:17:17;;;;;;;;;2.00;2.00;;;;;;;;5055916;28;28450;-84
2023/12/21 15:19:59;;;;;;;;;;;;;;;;;;;;;
2023/12/21 15:22:54;;;;;;;;;2.00;2.00;;;;;;;;5061537;28;53642;-84
2023/12/21 15:25:38;;;;;;;;;2.00;0.67;;;;;;;;4944910;28;28296;-80
2023/12/21 15:31:47;;;;;;;;;6.67;2.33;;;;;;;;4983698;28;28871;-83
2023/12/21 15:34:22;;;;;;;;;8.33;3.00;;;;;;;;4975377;28;28969;-86
2023/12/21 15:40:01;;;;;;;;;6.00;2.00;;;;;;;;4945959;28;28966;-82
2023/12/21 15:42:39;;;;;;;;;7.00;3.33;;;;;;;;4972554;28;28155;-82
2023/12/21 15:48:46;;;;;;;;;2.33;2.00;;;;;;;;4947218;28;28806;-83
2023/12/21 15:51:21;;;;;;;;;26.00;25.67;;;;;;;;4994959;28;28400;-79
2023/12/21 15:53:46;;;;;;;;;5.33;5.33;;;;;;;;5064880;28;28606;-84
2023/12/21 15:56:21;;;;;;;;;7.00;2.67;;;;;;;;5039559;28;28558;-84
2023/12/21 15:59:02;;;;;;;;;5.00;4.33;;;;;;;;5036334;28;29765;-87
2023/12/21 16:01:33;;;;;;;;;8.33;5.00;;;;;;;;5038616;28;29323;-84
2023/12/21 16:04:35;;;;;;;;;4.00;2.33;;;;;;;;5068546;28;28692;-85
2023/12/21 16:07:08;;;;;;;;;6.33;1.67;;;;;;;;5050337;28;28339;-90
2023/12/21 16:10:21;;;;;;;;;;;;;;;;;;;;;
2023/12/21 16:12:53;;;;;;;;;14.00;5.00;;;;;;;;5048365;28;29720;-84
2023/12/21 16:15:29;;;;;;;;;5.50;2.00;;;;;;;;5044613;28;27989;-87
2023/12/21 16:21:06;;;;;;;;;8.67;5.00;;;;;;;;5013247;28;28416;-83
2023/12/21 16:26:57;;;;;;;;;;;;;;;;;;;;;
2023/12/21 16:29:55;;;;;;;;;2.67;2.00;;;;;;;;5028191;28;54298;-83
2023/12/21 16:32:41;;;;;;;;;3.00;0.00;;;;;;;;5057533;28;28415;-85
2023/12/21 16:35:20;;;;;;;;;;;;;;;;;;;;;
2023/12/21 16:38:16;;;;;;;;;;;;;;;;;;;;;
2023/12/21 16:40:50;;;;;;;;;3.00;3.00;;;;;;;;5067020;28;53197;-85
2023/12/21 16:43:19;;;;;;;;;6.33;4.00;;;;;;;;5046220;28;28123;-85
2023/12/21 16:45:44;;;;;;;;;3.00;3.00;;;;;;;;5043741;28;28591;-84
2023/12/21 16:48:10;;;;;;;;;2.00;2.00;;;;;;;;5059642;28;28662;-84
2023/12/21 16:50:35;;;;;;;;;6.33;4.67;;;;;;;;5045862;28;28677;-85
2023/12/21 16:53:04;;;;;;;;;4.00;3.67;;;;;;;;5038432;28;29098;-80
2023/12/21 16:55:53;;;;;;;;;10.67;3.33;;;;;;;;5030227;28;29158;-81
2023/12/21 16:58:24;;;;;;;;;2.67;1.00;;;;;;;;5063063;28;28567;-84
2023/12/21 17:00:59;;;;;;;;;6.67;3.00;;;;;;;;5039813;28;28659;-85
2023/12/21 17:03:24;;;;;;;;;9.33;4.00;;;;;;;;5053289;28;29351;-85
2023/12/21 17:05:54;;;;;;;;;8.00;4.00;;;;;;;;5053892;28;29675;-85
2023/12/21 17:08:19;;;;;;;;;7.00;2.00;;;;;;;;5053174;28;27966;-83
2023/12/21 17:10:45;;;;;;;;;7.33;3.67;;;;;;;;5040529;28;27980;-82
2023/12/21 17:13:33;;;;;;;;;3.33;1.33;;;;;;;;5054751;28;28864;-80
2023/12/21 17:16:32;;;;;;;;;;;;;;;;;;;;;
2023/12/21 17:18:58;;;;;;;;;5.00;2.33;;;;;;;;5049212;28;55343;-80
2023/12/21 17:21:26;;;;;;;;;5.67;2.00;;;;;;;;5059331;28;28823;-81
2023/12/21 17:23:53;;;;;;;;;5.67;4.33;;;;;;;;5054023;28;28706;-81
2023/12/21 17:26:42;;;;;;;;;;;;;;;;;;;;;
2023/12/21 17:32:42;;;;;;;;;4.00;2.00;;;;;;;;5046845;28;28877;-81